sensor_id;sensor_type;location;lat;lon;timestamp;temperature;humidity
27544;DHT22;17996;51.056;3.656;2023-04-25T00:00:45;9.70;99.90
27544;DHT22;17996;51.056;3.656;2023-04-25T00:03:11;9.60;99.90
27544;DHT22;17996;51.056;3.656;2023-04-25T00:05:37;9.60;99.90
27544;DHT22;17996;51.056;3.656;2023-04-25T00:08:04;9.50;99.90
27544;DHT22;17996;51.056;3.656;2023-04-25T00:10:31;9.40;99.90
27544;DHT22;17996;51.056;3.656;2023-04-25T00:12:56;9.50;99.90
27544;DHT22;17996;51.056;3.656;2023-04-25T00:15:23;9.50;99.90
27544;DHT22;17996;51.056;3.656;2023-04-25T00:17:49;9.40;99.90
27544;DHT22;17996;51.056;3.656;2023-04-25T00:20:19;9.50;99.90
27544;DHT22;17996;51.056;3.656;2023-04-25T00:22:45;9.50;99.90
27544;DHT22;17996;51.056;3.656;2023-04-25T00:25:10;9.50;99.90
27544;DHT22;17996;51.056;3.656;2023-04-25T00:27:36;9.50;99.90
27544;DHT22;17996;51.056;3.656;2023-04-25T00:30:02;9.40;99.90
27544;DHT22;17996;51.056;3.656;2023-04-25T00:32:28;9.40;99.90
27544;DHT22;17996;51.056;3.656;2023-04-25T00:34:54;9.40;99.90
27544;DHT22;17996;51.056;3.656;2023-04-25T00:37:21;9.40;99.90
27544;DHT22;17996;51.056;3.656;2023-04-25T00:39:47;9.40;99.90
27544;DHT22;17996;51.056;3.656;2023-04-25T00:42:13;9.40;99.90
27544;DHT22;17996;51.056;3.656;2023-04-25T00:44:39;9.40;99.90
27544;DHT22;17996;51.056;3.656;2023-04-25T00:47:05;9.50;99.90
27544;DHT22;17996;51.056;3.656;2023-04-25T00:49:31;9.40;99.90
27544;DHT22;17996;51.056;3.656;2023-04-25T00:51:57;9.40;99.90
27544;DHT22;17996;51.056;3.656;2023-04-25T00:54:23;9.50;99.90
27544;DHT22;17996;51.056;3.656;2023-04-25T00:56:49;9.40;99.90
27544;DHT22;17996;51.056;3.656;2023-04-25T00:59:15;9.40;99.90
27544;DHT22;17996;51.056;3.656;2023-04-25T01:01:41;9.30;99.90
27544;DHT22;17996;51.056;3.656;2023-04-25T01:04:07;9.30;99.90
27544;DHT22;17996;51.056;3.656;2023-04-25T01:06:33;9.40;99.90
27544;DHT22;17996;51.056;3.656;2023-04-25T01:08:59;9.30;99.90
27544;DHT22;17996;51.056;3.656;2023-04-25T01:11:25;9.30;99.90
27544;DHT22;17996;51.056;3.656;2023-04-25T01:13:50;9.20;99.90
27544;DHT22;17996;51.056;3.656;2023-04-25T01:16:16;9.20;99.90
27544;DHT22;17996;51.056;3.656;2023-04-25T01:18:42;9.30;99.90
27544;DHT22;17996;51.056;3.656;2023-04-25T01:21:10;9.20;99.90
27544;DHT22;17996;51.056;3.656;2023-04-25T01:23:37;9.30;99.90
27544;DHT22;17996;51.056;3.656;2023-04-25T01:26:04;9.30;99.90
27544;DHT22;17996;51.056;3.656;2023-04-25T01:28:30;9.30;99.90
27544;DHT22;17996;51.056;3.656;2023-04-25T01:30:57;9.20;99.90
27544;DHT22;17996;51.056;3.656;2023-04-25T01:33:23;9.20;99.90
27544;DHT22;17996;51.056;3.656;2023-04-25T01:35:49;9.10;99.90
27544;DHT22;17996;51.056;3.656;2023-04-25T01:38:14;9.00;99.90
27544;DHT22;17996;51.056;3.656;2023-04-25T01:40:41;9.10;99.90
27544;DHT22;17996;51.056;3.656;2023-04-25T01:43:09;9.00;99.90
27544;DHT22;17996;51.056;3.656;2023-04-25T01:45:38;9.00;99.90
27544;DHT22;17996;51.056;3.656;2023-04-25T01:48:11;9.00;99.90
27544;DHT22;17996;51.056;3.656;2023-04-25T01:50:38;9.10;99.90
27544;DHT22;17996;51.056;3.656;2023-04-25T01:53:04;9.00;99.90
27544;DHT22;17996;51.056;3.656;2023-04-25T01:55:30;9.10;99.90
27544;DHT22;17996;51.056;3.656;2023-04-25T01:57:56;9.10;99.90
27544;DHT22;17996;51.056;3.656;2023-04-25T02:00:22;9.10;99.90
27544;DHT22;17996;51.056;3.656;2023-04-25T02:02:48;9.00;99.90
27544;DHT22;17996;51.056;3.656;2023-04-25T02:05:16;9.00;99.90
27544;DHT22;17996;51.056;3.656;2023-04-25T02:07:42;9.00;99.90
27544;DHT22;17996;51.056;3.656;2023-04-25T02:10:08;9.00;99.90
27544;DHT22;17996;51.056;3.656;2023-04-25T02:12:35;9.00;99.90
27544;DHT22;17996;51.056;3.656;2023-04-25T02:15:01;8.90;99.90
27544;DHT22;17996;51.056;3.656;2023-04-25T02:17:27;8.90;99.90
27544;DHT22;17996;51.056;3.656;2023-04-25T02:19:53;8.90;99.90
27544;DHT22;17996;51.056;3.656;2023-04-25T02:22:18;8.80;99.90
27544;DHT22;17996;51.056;3.656;2023-04-25T02:24:45;8.90;99.90
27544;DHT22;17996;51.056;3.656;2023-04-25T02:27:10;8.90;99.90
27544;DHT22;17996;51.056;3.656;2023-04-25T02:29:36;8.90;99.90
27544;DHT22;17996;51.056;3.656;2023-04-25T02:32:02;8.90;99.90
27544;DHT22;17996;51.056;3.656;2023-04-25T02:34:27;9.00;99.90
27544;DHT22;17996;51.056;3.656;2023-04-25T02:36:54;8.90;99.90
27544;DHT22;17996;51.056;3.656;2023-04-25T02:39:20;9.00;99.90
27544;DHT22;17996;51.056;3.656;2023-04-25T02:41:47;9.00;99.90
27544;DHT22;17996;51.056;3.656;2023-04-25T02:44:13;9.10;99.90
27544;DHT22;17996;51.056;3.656;2023-04-25T02:46:38;9.10;99.90
27544;DHT22;17996;51.056;3.656;2023-04-25T02:49:04;9.10;99.90
27544;DHT22;17996;51.056;3.656;2023-04-25T02:51:30;9.00;99.90
27544;DHT22;17996;51.056;3.656;2023-04-25T02:53:56;9.10;99.90
27544;DHT22;17996;51.056;3.656;2023-04-25T02:56:22;9.10;99.90
27544;DHT22;17996;51.056;3.656;2023-04-25T02:58:47;9.00;99.90
27544;DHT22;17996;51.056;3.656;2023-04-25T03:01:13;9.00;99.90
27544;DHT22;17996;51.056;3.656;2023-04-25T03:03:39;8.90;99.90
27544;DHT22;17996;51.056;3.656;2023-04-25T03:06:05;8.80;99.90
27544;DHT22;17996;51.056;3.656;2023-04-25T03:08:31;8.70;99.90
27544;DHT22;17996;51.056;3.656;2023-04-25T03:10:58;8.60;99.90
27544;DHT22;17996;51.056;3.656;2023-04-25T03:13:24;8.60;99.90
27544;DHT22;17996;51.056;3.656;2023-04-25T03:15:50;8.60;99.90
27544;DHT22;17996;51.056;3.656;2023-04-25T03:18:15;8.50;99.90
27544;DHT22;17996;51.056;3.656;2023-04-25T03:20:41;8.50;99.90
27544;DHT22;17996;51.056;3.656;2023-04-25T03:23:07;8.50;99.90
27544;DHT22;17996;51.056;3.656;2023-04-25T03:25:33;8.50;99.90
27544;DHT22;17996;51.056;3.656;2023-04-25T03:27:58;8.50;99.90
27544;DHT22;17996;51.056;3.656;2023-04-25T03:30:24;8.40;99.90
27544;DHT22;17996;51.056;3.656;2023-04-25T03:32:50;8.30;99.90
27544;DHT22;17996;51.056;3.656;2023-04-25T03:35:16;8.20;99.90
27544;DHT22;17996;51.056;3.656;2023-04-25T03:37:41;8.20;99.90
27544;DHT22;17996;51.056;3.656;2023-04-25T03:40:11;8.20;99.90
27544;DHT22;17996;51.056;3.656;2023-04-25T03:42:36;8.10;99.90
27544;DHT22;17996;51.056;3.656;2023-04-25T03:45:02;8.20;99.90
27544;DHT22;17996;51.056;3.656;2023-04-25T03:47:28;8.20;99.90
27544;DHT22;17996;51.056;3.656;2023-04-25T03:49:54;8.20;99.90
27544;DHT22;17996;51.056;3.656;2023-04-25T03:52:20;8.20;99.90
27544;DHT22;17996;51.056;3.656;2023-04-25T03:54:46;8.20;99.90
27544;DHT22;17996;51.056;3.656;2023-04-25T03:57:11;8.20;99.90
27544;DHT22;17996;51.056;3.656;2023-04-25T03:59:37;8.20;99.90
27544;DHT22;17996;51.056;3.656;2023-04-25T04:02:03;8.20;99.90
27544;DHT22;17996;51.056;3.656;2023-04-25T04:04:28;8.20;99.90
27544;DHT22;17996;51.056;3.656;2023-04-25T04:06:55;8.20;99.90
27544;DHT22;17996;51.056;3.656;2023-04-25T04:09:21;8.20;99.90
27544;DHT22;17996;51.056;3.656;2023-04-25T04:11:47;8.20;99.90
27544;DHT22;17996;51.056;3.656;2023-04-25T04:14:12;8.20;99.90
27544;DHT22;17996;51.056;3.656;2023-04-25T04:16:38;8.10;99.90
27544;DHT22;17996;51.056;3.656;2023-04-25T04:19:04;8.20;99.90
27544;DHT22;17996;51.056;3.656;2023-04-25T04:21:30;8.20;99.90
27544;DHT22;17996;51.056;3.656;2023-04-25T04:23:55;8.30;99.90
27544;DHT22;17996;51.056;3.656;2023-04-25T04:26:23;8.40;99.90
27544;DHT22;17996;51.056;3.656;2023-04-25T04:28:52;8.40;99.90
27544;DHT22;17996;51.056;3.656;2023-04-25T04:31:20;8.40;99.90
27544;DHT22;17996;51.056;3.656;2023-04-25T04:33:47;8.40;99.90
27544;DHT22;17996;51.056;3.656;2023-04-25T04:36:13;8.30;99.90
27544;DHT22;17996;51.056;3.656;2023-04-25T04:38:39;8.40;99.90
27544;DHT22;17996;51.056;3.656;2023-04-25T04:41:05;8.40;99.90
27544;DHT22;17996;51.056;3.656;2023-04-25T04:43:31;8.50;99.90
27544;DHT22;17996;51.056;3.656;2023-04-25T04:46:01;8.40;99.90
27544;DHT22;17996;51.056;3.656;2023-04-25T04:48:29;8.40;99.90
27544;DHT22;17996;51.056;3.656;2023-04-25T04:50:58;8.30;99.90
27544;DHT22;17996;51.056;3.656;2023-04-25T04:53:24;8.40;99.90
27544;DHT22;17996;51.056;3.656;2023-04-25T04:55:49;8.30;99.90
27544;DHT22;17996;51.056;3.656;2023-04-25T04:58:15;8.30;99.90
27544;DHT22;17996;51.056;3.656;2023-04-25T05:00:41;8.30;99.90
27544;DHT22;17996;51.056;3.656;2023-04-25T05:03:07;8.40;99.90
27544;DHT22;17996;51.056;3.656;2023-04-25T05:05:32;8.50;99.90
27544;DHT22;17996;51.056;3.656;2023-04-25T05:07:58;8.60;99.90
27544;DHT22;17996;51.056;3.656;2023-04-25T05:10:25;8.70;99.90
27544;DHT22;17996;51.056;3.656;2023-04-25T05:12:51;8.70;99.90
27544;DHT22;17996;51.056;3.656;2023-04-25T05:15:16;8.80;99.90
27544;DHT22;17996;51.056;3.656;2023-04-25T05:17:42;8.90;99.90
27544;DHT22;17996;51.056;3.656;2023-04-25T05:20:08;9.00;99.90
27544;DHT22;17996;51.056;3.656;2023-04-25T05:22:35;8.90;99.90
27544;DHT22;17996;51.056;3.656;2023-04-25T05:25:01;8.90;99.90
27544;DHT22;17996;51.056;3.656;2023-04-25T05:27:27;9.00;99.90
27544;DHT22;17996;51.056;3.656;2023-04-25T05:29:53;9.00;99.90
27544;DHT22;17996;51.056;3.656;2023-04-25T05:32:18;9.00;99.90
27544;DHT22;17996;51.056;3.656;2023-04-25T05:34:44;8.80;99.90
27544;DHT22;17996;51.056;3.656;2023-04-25T05:37:09;8.70;99.90
27544;DHT22;17996;51.056;3.656;2023-04-25T05:39:35;8.80;99.90
27544;DHT22;17996;51.056;3.656;2023-04-25T05:42:01;8.80;99.90
27544;DHT22;17996;51.056;3.656;2023-04-25T05:44:28;8.80;99.90
27544;DHT22;17996;51.056;3.656;2023-04-25T05:46:53;8.80;99.90
27544;DHT22;17996;51.056;3.656;2023-04-25T05:49:20;8.80;99.90
27544;DHT22;17996;51.056;3.656;2023-04-25T05:51:45;8.70;99.90
27544;DHT22;17996;51.056;3.656;2023-04-25T05:54:11;8.60;99.90
27544;DHT22;17996;51.056;3.656;2023-04-25T05:56:37;8.60;99.90
27544;DHT22;17996;51.056;3.656;2023-04-25T05:59:04;8.50;99.90
27544;DHT22;17996;51.056;3.656;2023-04-25T06:01:30;8.70;99.90
27544;DHT22;17996;51.056;3.656;2023-04-25T06:03:56;8.70;99.90
27544;DHT22;17996;51.056;3.656;2023-04-25T06:06:22;8.70;99.90
27544;DHT22;17996;51.056;3.656;2023-04-25T06:08:48;8.70;99.90
27544;DHT22;17996;51.056;3.656;2023-04-25T06:11:14;8.80;99.90
27544;DHT22;17996;51.056;3.656;2023-04-25T06:13:39;8.90;99.90
27544;DHT22;17996;51.056;3.656;2023-04-25T06:16:05;8.80;99.90
27544;DHT22;17996;51.056;3.656;2023-04-25T06:18:31;8.80;99.90
27544;DHT22;17996;51.056;3.656;2023-04-25T06:20:57;8.90;99.90
27544;DHT22;17996;51.056;3.656;2023-04-25T06:23:22;9.00;99.90
27544;DHT22;17996;51.056;3.656;2023-04-25T06:25:48;9.10;99.90
27544;DHT22;17996;51.056;3.656;2023-04-25T06:28:14;9.10;99.90
27544;DHT22;17996;51.056;3.656;2023-04-25T06:30:39;9.10;99.90
27544;DHT22;17996;51.056;3.656;2023-04-25T06:33:05;9.10;99.90
27544;DHT22;17996;51.056;3.656;2023-04-25T06:35:31;9.10;99.90
27544;DHT22;17996;51.056;3.656;2023-04-25T06:37:57;9.10;99.90
27544;DHT22;17996;51.056;3.656;2023-04-25T06:40:23;9.20;99.90
27544;DHT22;17996;51.056;3.656;2023-04-25T06:42:48;9.10;99.90
27544;DHT22;17996;51.056;3.656;2023-04-25T06:45:14;9.20;99.90
27544;DHT22;17996;51.056;3.656;2023-04-25T06:47:40;9.20;99.90
27544;DHT22;17996;51.056;3.656;2023-04-25T06:50:06;9.20;99.90
27544;DHT22;17996;51.056;3.656;2023-04-25T06:52:32;9.20;99.90
27544;DHT22;17996;51.056;3.656;2023-04-25T06:54:58;9.20;99.90
27544;DHT22;17996;51.056;3.656;2023-04-25T06:57:23;9.10;99.90
27544;DHT22;17996;51.056;3.656;2023-04-25T06:59:51;9.10;99.90
27544;DHT22;17996;51.056;3.656;2023-04-25T07:02:17;9.20;99.90
27544;DHT22;17996;51.056;3.656;2023-04-25T07:04:45;9.20;99.90
27544;DHT22;17996;51.056;3.656;2023-04-25T07:07:11;9.10;99.90
27544;DHT22;17996;51.056;3.656;2023-04-25T07:09:37;9.00;99.90
27544;DHT22;17996;51.056;3.656;2023-04-25T07:12:03;9.00;99.90
27544;DHT22;17996;51.056;3.656;2023-04-25T07:14:29;9.00;99.90
27544;DHT22;17996;51.056;3.656;2023-04-25T07:16:54;9.00;99.90
27544;DHT22;17996;51.056;3.656;2023-04-25T07:19:22;9.10;99.90
27544;DHT22;17996;51.056;3.656;2023-04-25T07:21:49;9.00;99.90
27544;DHT22;17996;51.056;3.656;2023-04-25T07:24:15;9.10;99.90
27544;DHT22;17996;51.056;3.656;2023-04-25T07:26:41;9.00;99.90
27544;DHT22;17996;51.056;3.656;2023-04-25T07:29:06;9.00;99.90
27544;DHT22;17996;51.056;3.656;2023-04-25T07:31:32;9.00;99.90
27544;DHT22;17996;51.056;3.656;2023-04-25T07:33:58;9.00;99.90
27544;DHT22;17996;51.056;3.656;2023-04-25T07:36:24;9.10;99.90
27544;DHT22;17996;51.056;3.656;2023-04-25T07:38:51;9.20;99.90
27544;DHT22;17996;51.056;3.656;2023-04-25T07:41:17;9.40;99.90
27544;DHT22;17996;51.056;3.656;2023-04-25T07:43:43;9.70;99.90
27544;DHT22;17996;51.056;3.656;2023-04-25T07:46:08;9.80;99.90
27544;DHT22;17996;51.056;3.656;2023-04-25T07:48:34;9.90;99.90
27544;DHT22;17996;51.056;3.656;2023-04-25T07:51:00;10.00;99.90
27544;DHT22;17996;51.056;3.656;2023-04-25T07:53:25;10.00;99.90
27544;DHT22;17996;51.056;3.656;2023-04-25T07:55:51;10.10;99.90
27544;DHT22;17996;51.056;3.656;2023-04-25T07:58:17;10.20;99.90
27544;DHT22;17996;51.056;3.656;2023-04-25T08:00:47;10.30;99.90
27544;DHT22;17996;51.056;3.656;2023-04-25T08:03:12;10.30;99.90
27544;DHT22;17996;51.056;3.656;2023-04-25T08:05:38;10.30;99.90
27544;DHT22;17996;51.056;3.656;2023-04-25T08:08:04;10.30;99.90
27544;DHT22;17996;51.056;3.656;2023-04-25T08:10:32;10.30;99.90
27544;DHT22;17996;51.056;3.656;2023-04-25T08:12:58;10.30;99.90
27544;DHT22;17996;51.056;3.656;2023-04-25T08:15:24;10.20;99.90
27544;DHT22;17996;51.056;3.656;2023-04-25T08:17:50;10.00;99.90
27544;DHT22;17996;51.056;3.656;2023-04-25T08:20:16;9.80;99.90
27544;DHT22;17996;51.056;3.656;2023-04-25T08:22:42;9.70;99.90
27544;DHT22;17996;51.056;3.656;2023-04-25T08:25:08;9.80;99.90
27544;DHT22;17996;51.056;3.656;2023-04-25T08:27:34;9.80;99.90
27544;DHT22;17996;51.056;3.656;2023-04-25T08:30:02;9.80;99.90
27544;DHT22;17996;51.056;3.656;2023-04-25T08:32:28;9.90;99.90
27544;DHT22;17996;51.056;3.656;2023-04-25T08:34:54;9.90;99.90
27544;DHT22;17996;51.056;3.656;2023-04-25T08:37:21;10.00;99.90
27544;DHT22;17996;51.056;3.656;2023-04-25T08:39:47;10.10;99.90
27544;DHT22;17996;51.056;3.656;2023-04-25T08:42:18;10.30;99.90
27544;DHT22;17996;51.056;3.656;2023-04-25T08:44:45;10.40;99.90
27544;DHT22;17996;51.056;3.656;2023-04-25T08:47:11;10.30;99.90
27544;DHT22;17996;51.056;3.656;2023-04-25T08:49:38;10.30;99.90
27544;DHT22;17996;51.056;3.656;2023-04-25T08:52:05;10.30;99.90
27544;DHT22;17996;51.056;3.656;2023-04-25T08:54:32;10.40;99.90
27544;DHT22;17996;51.056;3.656;2023-04-25T08:57:01;10.50;99.90
27544;DHT22;17996;51.056;3.656;2023-04-25T08:59:28;10.60;99.90
27544;DHT22;17996;51.056;3.656;2023-04-25T09:01:54;10.60;99.90
27544;DHT22;17996;51.056;3.656;2023-04-25T09:04:20;10.50;99.90
27544;DHT22;17996;51.056;3.656;2023-04-25T09:06:47;10.50;99.90
27544;DHT22;17996;51.056;3.656;2023-04-25T09:09:12;10.40;99.90
27544;DHT22;17996;51.056;3.656;2023-04-25T09:11:39;10.30;99.90
27544;DHT22;17996;51.056;3.656;2023-04-25T09:14:17;10.10;99.90
27544;DHT22;17996;51.056;3.656;2023-04-25T09:16:59;10.00;99.90
27544;DHT22;17996;51.056;3.656;2023-04-25T09:19:30;9.80;99.90
27544;DHT22;17996;51.056;3.656;2023-04-25T09:21:57;9.60;99.90
27544;DHT22;17996;51.056;3.656;2023-04-25T09:24:40;9.70;99.90
27544;DHT22;17996;51.056;3.656;2023-04-25T09:27:09;9.60;99.90
27544;DHT22;17996;51.056;3.656;2023-04-25T09:29:36;9.60;99.90
27544;DHT22;17996;51.056;3.656;2023-04-25T09:32:22;9.70;99.90
27544;DHT22;17996;51.056;3.656;2023-04-25T09:34:53;9.90;99.90
27544;DHT22;17996;51.056;3.656;2023-04-25T09:37:25;10.00;99.90
27544;DHT22;17996;51.056;3.656;2023-04-25T09:39:53;10.10;99.90
27544;DHT22;17996;51.056;3.656;2023-04-25T09:42:22;10.20;99.90
27544;DHT22;17996;51.056;3.656;2023-04-25T09:44:52;10.20;99.90
27544;DHT22;17996;51.056;3.656;2023-04-25T09:47:18;10.40;99.90
27544;DHT22;17996;51.056;3.656;2023-04-25T09:49:46;10.50;99.90
27544;DHT22;17996;51.056;3.656;2023-04-25T09:52:39;10.70;99.90
27544;DHT22;17996;51.056;3.656;2023-04-25T09:55:05;10.90;99.90
27544;DHT22;17996;51.056;3.656;2023-04-25T09:57:31;11.00;99.90
27544;DHT22;17996;51.056;3.656;2023-04-25T09:59:58;11.20;99.90
27544;DHT22;17996;51.056;3.656;2023-04-25T10:02:27;11.20;99.90
27544;DHT22;17996;51.056;3.656;2023-04-25T10:04:54;11.30;99.90
27544;DHT22;17996;51.056;3.656;2023-04-25T10:07:24;11.40;99.90
27544;DHT22;17996;51.056;3.656;2023-04-25T10:10:00;11.20;99.90
27544;DHT22;17996;51.056;3.656;2023-04-25T10:12:27;11.20;99.90
27544;DHT22;17996;51.056;3.656;2023-04-25T10:14:54;11.20;99.90
27544;DHT22;17996;51.056;3.656;2023-04-25T10:17:20;11.20;99.90
27544;DHT22;17996;51.056;3.656;2023-04-25T10:19:47;11.30;99.90
27544;DHT22;17996;51.056;3.656;2023-04-25T10:22:18;11.10;99.90
27544;DHT22;17996;51.056;3.656;2023-04-25T10:24:46;10.90;99.90
27544;DHT22;17996;51.056;3.656;2023-04-25T10:27:12;11.00;99.90
27544;DHT22;17996;51.056;3.656;2023-04-25T10:29:38;11.10;99.90
27544;DHT22;17996;51.056;3.656;2023-04-25T10:32:08;11.20;99.90
27544;DHT22;17996;51.056;3.656;2023-04-25T10:34:43;11.20;99.90
27544;DHT22;17996;51.056;3.656;2023-04-25T10:37:12;11.20;99.90
27544;DHT22;17996;51.056;3.656;2023-04-25T10:39:40;11.30;99.90
27544;DHT22;17996;51.056;3.656;2023-04-25T10:42:07;11.40;99.90
27544;DHT22;17996;51.056;3.656;2023-04-25T10:44:37;11.30;99.90
27544;DHT22;17996;51.056;3.656;2023-04-25T10:47:07;11.30;99.90
27544;DHT22;17996;51.056;3.656;2023-04-25T10:49:42;11.20;99.90
27544;DHT22;17996;51.056;3.656;2023-04-25T10:52:16;11.30;99.90
27544;DHT22;17996;51.056;3.656;2023-04-25T10:54:47;11.30;99.90
27544;DHT22;17996;51.056;3.656;2023-04-25T10:57:32;11.30;99.90
27544;DHT22;17996;51.056;3.656;2023-04-25T11:00:19;11.40;99.90
27544;DHT22;17996;51.056;3.656;2023-04-25T11:03:07;11.40;99.90
27544;DHT22;17996;51.056;3.656;2023-04-25T11:05:34;11.50;99.90
27544;DHT22;17996;51.056;3.656;2023-04-25T11:08:00;11.40;99.90
27544;DHT22;17996;51.056;3.656;2023-04-25T11:10:30;11.30;99.90
27544;DHT22;17996;51.056;3.656;2023-04-25T11:12:57;11.40;99.90
27544;DHT22;17996;51.056;3.656;2023-04-25T11:15:23;11.50;99.90
27544;DHT22;17996;51.056;3.656;2023-04-25T11:17:51;11.60;99.90
27544;DHT22;17996;51.056;3.656;2023-04-25T11:20:17;11.60;99.90
27544;DHT22;17996;51.056;3.656;2023-04-25T11:22:44;11.80;99.90
27544;DHT22;17996;51.056;3.656;2023-04-25T11:25:12;11.90;99.90
27544;DHT22;17996;51.056;3.656;2023-04-25T11:27:58;12.10;99.90
27544;DHT22;17996;51.056;3.656;2023-04-25T11:30:26;12.00;99.90
27544;DHT22;17996;51.056;3.656;2023-04-25T11:32:52;11.80;99.90
27544;DHT22;17996;51.056;3.656;2023-04-25T11:35:21;11.60;99.90
27544;DHT22;17996;51.056;3.656;2023-04-25T11:37:48;11.50;99.90
27544;DHT22;17996;51.056;3.656;2023-04-25T11:40:15;11.40;99.90
27544;DHT22;17996;51.056;3.656;2023-04-25T11:42:45;11.40;99.90
27544;DHT22;17996;51.056;3.656;2023-04-25T11:45:11;11.40;99.90
27544;DHT22;17996;51.056;3.656;2023-04-25T11:47:38;11.50;99.90
27544;DHT22;17996;51.056;3.656;2023-04-25T11:50:06;11.60;99.90
27544;DHT22;17996;51.056;3.656;2023-04-25T11:52:40;11.60;99.90
27544;DHT22;17996;51.056;3.656;2023-04-25T11:57:40;11.60;99.90
27544;DHT22;17996;51.056;3.656;2023-04-25T12:00:17;11.60;99.90
27544;DHT22;17996;51.056;3.656;2023-04-25T12:03:03;11.60;99.90
27544;DHT22;17996;51.056;3.656;2023-04-25T12:05:31;11.60;99.90
27544;DHT22;17996;51.056;3.656;2023-04-25T12:08:09;11.50;99.90
27544;DHT22;17996;51.056;3.656;2023-04-25T12:10:37;11.50;99.90
27544;DHT22;17996;51.056;3.656;2023-04-25T12:13:19;11.60;99.90
27544;DHT22;17996;51.056;3.656;2023-04-25T12:15:45;11.70;99.90
27544;DHT22;17996;51.056;3.656;2023-04-25T12:18:11;11.80;99.90
27544;DHT22;17996;51.056;3.656;2023-04-25T12:20:37;12.00;99.90
27544;DHT22;17996;51.056;3.656;2023-04-25T12:23:06;12.10;99.90
27544;DHT22;17996;51.056;3.656;2023-04-25T12:25:43;12.30;99.90
27544;DHT22;17996;51.056;3.656;2023-04-25T12:28:19;12.40;99.90
27544;DHT22;17996;51.056;3.656;2023-04-25T12:30:59;12.50;99.90
27544;DHT22;17996;51.056;3.656;2023-04-25T12:33:34;12.30;99.90
27544;DHT22;17996;51.056;3.656;2023-04-25T12:36:01;12.10;99.90
27544;DHT22;17996;51.056;3.656;2023-04-25T12:38:38;12.00;99.90
27544;DHT22;17996;51.056;3.656;2023-04-25T12:41:05;11.90;99.90
27544;DHT22;17996;51.056;3.656;2023-04-25T12:43:31;11.80;99.90
27544;DHT22;17996;51.056;3.656;2023-04-25T12:45:57;11.90;99.90
27544;DHT22;17996;51.056;3.656;2023-04-25T12:48:23;11.80;99.90
27544;DHT22;17996;51.056;3.656;2023-04-25T12:50:50;11.80;99.90
27544;DHT22;17996;51.056;3.656;2023-04-25T12:53:17;11.80;99.90
27544;DHT22;17996;51.056;3.656;2023-04-25T12:55:43;11.80;99.90
27544;DHT22;17996;51.056;3.656;2023-04-25T12:58:11;11.70;99.90
27544;DHT22;17996;51.056;3.656;2023-04-25T13:00:37;11.60;99.90
27544;DHT22;17996;51.056;3.656;2023-04-25T13:03:03;11.40;99.90
27544;DHT22;17996;51.056;3.656;2023-04-25T13:05:30;11.20;99.90
27544;DHT22;17996;51.056;3.656;2023-04-25T13:07:56;11.00;99.90
27544;DHT22;17996;51.056;3.656;2023-04-25T13:10:22;11.10;99.90
27544;DHT22;17996;51.056;3.656;2023-04-25T13:12:48;11.30;99.90
27544;DHT22;17996;51.056;3.656;2023-04-25T13:15:13;11.40;99.90
27544;DHT22;17996;51.056;3.656;2023-04-25T13:17:41;11.50;99.90
27544;DHT22;17996;51.056;3.656;2023-04-25T13:20:08;11.50;99.90
27544;DHT22;17996;51.056;3.656;2023-04-25T13:22:38;11.40;99.90
27544;DHT22;17996;51.056;3.656;2023-04-25T13:25:05;11.40;99.90
27544;DHT22;17996;51.056;3.656;2023-04-25T13:27:32;11.30;99.90
27544;DHT22;17996;51.056;3.656;2023-04-25T13:29:59;11.30;99.90
27544;DHT22;17996;51.056;3.656;2023-04-25T13:32:25;11.30;99.90
27544;DHT22;17996;51.056;3.656;2023-04-25T13:34:51;11.40;99.90
27544;DHT22;17996;51.056;3.656;2023-04-25T13:37:18;11.40;99.90
27544;DHT22;17996;51.056;3.656;2023-04-25T13:39:44;11.50;99.90
27544;DHT22;17996;51.056;3.656;2023-04-25T13:42:09;11.60;99.90
27544;DHT22;17996;51.056;3.656;2023-04-25T13:44:36;11.60;99.90
27544;DHT22;17996;51.056;3.656;2023-04-25T13:47:02;11.60;99.90
27544;DHT22;17996;51.056;3.656;2023-04-25T13:49:28;11.60;99.90
27544;DHT22;17996;51.056;3.656;2023-04-25T13:51:53;11.50;99.90
27544;DHT22;17996;51.056;3.656;2023-04-25T13:54:19;11.50;99.90
27544;DHT22;17996;51.056;3.656;2023-04-25T13:56:45;11.60;99.90
27544;DHT22;17996;51.056;3.656;2023-04-25T13:59:11;11.60;99.90
27544;DHT22;17996;51.056;3.656;2023-04-25T14:01:36;11.60;99.90
27544;DHT22;17996;51.056;3.656;2023-04-25T14:04:04;11.70;99.90
27544;DHT22;17996;51.056;3.656;2023-04-25T14:06:31;11.80;99.90
27544;DHT22;17996;51.056;3.656;2023-04-25T14:08:57;11.70;99.90
27544;DHT22;17996;51.056;3.656;2023-04-25T14:11:23;11.70;99.90
27544;DHT22;17996;51.056;3.656;2023-04-25T14:13:48;11.60;99.90
27544;DHT22;17996;51.056;3.656;2023-04-25T14:16:15;11.70;99.90
27544;DHT22;17996;51.056;3.656;2023-04-25T14:18:41;11.80;99.90
27544;DHT22;17996;51.056;3.656;2023-04-25T14:21:07;11.90;99.90
27544;DHT22;17996;51.056;3.656;2023-04-25T14:23:33;12.10;99.90
27544;DHT22;17996;51.056;3.656;2023-04-25T14:25:59;12.20;99.90
27544;DHT22;17996;51.056;3.656;2023-04-25T14:28:24;12.30;99.90
27544;DHT22;17996;51.056;3.656;2023-04-25T14:30:50;12.30;99.90
27544;DHT22;17996;51.056;3.656;2023-04-25T14:33:16;12.10;99.90
27544;DHT22;17996;51.056;3.656;2023-04-25T14:35:41;12.30;99.90
27544;DHT22;17996;51.056;3.656;2023-04-25T14:38:07;12.30;99.90
27544;DHT22;17996;51.056;3.656;2023-04-25T14:40:33;12.20;99.90
27544;DHT22;17996;51.056;3.656;2023-04-25T14:42:59;12.10;99.90
27544;DHT22;17996;51.056;3.656;2023-04-25T14:45:24;12.00;99.90
27544;DHT22;17996;51.056;3.656;2023-04-25T14:47:50;12.20;99.90
27544;DHT22;17996;51.056;3.656;2023-04-25T14:50:16;12.70;99.90
27544;DHT22;17996;51.056;3.656;2023-04-25T14:52:42;12.60;99.90
27544;DHT22;17996;51.056;3.656;2023-04-25T14:55:08;12.80;99.90
27544;DHT22;17996;51.056;3.656;2023-04-25T14:57:34;13.30;99.90
27544;DHT22;17996;51.056;3.656;2023-04-25T15:00:00;13.60;99.90
27544;DHT22;17996;51.056;3.656;2023-04-25T15:02:28;14.20;99.90
27544;DHT22;17996;51.056;3.656;2023-04-25T15:04:54;14.30;99.90
27544;DHT22;17996;51.056;3.656;2023-04-25T15:07:21;14.80;99.90
27544;DHT22;17996;51.056;3.656;2023-04-25T15:09:47;15.00;99.90
27544;DHT22;17996;51.056;3.656;2023-04-25T15:12:13;14.90;99.90
27544;DHT22;17996;51.056;3.656;2023-04-25T15:14:40;14.20;99.90
27544;DHT22;17996;51.056;3.656;2023-04-25T15:17:05;13.50;99.90
27544;DHT22;17996;51.056;3.656;2023-04-25T15:19:31;13.40;99.90
27544;DHT22;17996;51.056;3.656;2023-04-25T15:21:57;14.10;99.90
27544;DHT22;17996;51.056;3.656;2023-04-25T15:24:25;14.20;99.90
27544;DHT22;17996;51.056;3.656;2023-04-25T15:26:51;13.90;99.90
27544;DHT22;17996;51.056;3.656;2023-04-25T15:29:17;14.10;99.90
27544;DHT22;17996;51.056;3.656;2023-04-25T15:31:43;14.40;99.90
27544;DHT22;17996;51.056;3.656;2023-04-25T15:34:09;14.70;99.20
27544;DHT22;17996;51.056;3.656;2023-04-25T15:36:34;14.80;98.80
27544;DHT22;17996;51.056;3.656;2023-04-25T15:39:00;15.10;97.80
27544;DHT22;17996;51.056;3.656;2023-04-25T15:41:28;15.30;98.30